Aviation Digital Data Service (ADDS)

Output produced by METARs form (0324 UTC 21 September 2017)
found at http://www.aviationweather.gov/adds/metars/
 
EKYT 210320Z AUTO 06002KT 6000NDV -RA FEW025/// BKN034/// BKN050/// 12/12 Q1018
TAF EKYT 210220Z 2103/2124 11005KT 9999 SCT020 BKN040 
     TEMPO 2103/2108 4000 -RA BR BKN006
       
EKAH 210320Z AUTO 00000KT 1900NDV -RA BR OVC055/// 12/12 Q1019
TAF EKAH 202315Z 2100/2124 VRB03KT 9999 SCT025 
     TEMPO 2100/2107 4000 RADZ BR BKN012 
     TEMPO 2107/2112 BKN012
       
EKBI 210320Z AUTO 11003KT 6000NDV -RA FEW021/// BKN026/// BKN066/// 12/11 Q1018
TAF AMD EKBI 210046Z 2100/2124 27005KT 9999 SCT020 
     TEMPO 2100/2107 4000 RADZ BR BKN012
       
EKRN 210320Z AUTO 34001KT 9999NDV SCT006/// BKN041/// BKN078/// 11/11 Q1019
EKEB 210320Z AUTO 14005KT 9999NDV BKN024/// BKN052/// BKN085/// 13/13 Q1018
TAF EKEB 210252Z 2103/2112 12004KT 9999 BKN030
       
EKKA 210320Z AUTO 00000KT 9999NDV FEW042/// SCT063/// BKN086/// 12/11 Q1018
TAF EKKA 210220Z 2103/2124 VRB05KT 9999 SCT020 BKN040 
     TEMPO 2103/2108 4000 -RA BR BKN008 
     BECMG 2109/2112 11008KT 
     TEMPO 2119/2124 BKN012
       
EKCH 210320Z 22003KT 9999 -RA BKN012 12/11 Q1019 TEMPO BKN015
TAF EKCH 202315Z 2100/2124 VRB04KT 9999 SCT030 
     TEMPO 2102/2107 4000 RADZ BKN012 
     TEMPO 2107/2112 BKN012
       
EKVD 210320Z AUTO 13002KT //// ///////// 12/11 Q1018
EKAH 210320Z AUTO 00000KT 1900NDV -RA BR OVC055/// 12/12 Q1019
TAF EKAH 202315Z 2100/2124 VRB03KT 9999 SCT025 
     TEMPO 2100/2107 4000 RADZ BR BKN012 
     TEMPO 2107/2112 BKN012
       
EKBI 210320Z AUTO 11003KT 6000NDV -RA FEW021/// BKN026/// BKN066/// 12/11 Q1018
TAF AMD EKBI 210046Z 2100/2124 27005KT 9999 SCT020 
     TEMPO 2100/2107 4000 RADZ BR BKN012
       
EKCH 210320Z 22003KT 9999 -RA BKN012 12/11 Q1019 TEMPO BKN015
TAF EKCH 202315Z 2100/2124 VRB04KT 9999 SCT030 
     TEMPO 2102/2107 4000 RADZ BKN012 
     TEMPO 2107/2112 BKN012
       
EKEB 210320Z AUTO 14005KT 9999NDV BKN024/// BKN052/// BKN085/// 13/13 Q1018
TAF EKEB 210252Z 2103/2112 12004KT 9999 BKN030
       
TAF EKGF 210252Z 2103/2112 18016KT 9999 BKN035
       
EKKA 210320Z AUTO 00000KT 9999NDV FEW042/// SCT063/// BKN086/// 12/11 Q1018
TAF EKKA 210220Z 2103/2124 VRB05KT 9999 SCT020 BKN040 
     TEMPO 2103/2108 4000 -RA BR BKN008 
     BECMG 2109/2112 11008KT 
     TEMPO 2119/2124 BKN012
       
EKRK 210320Z AUTO 27003KT 9999NDV -RA BKN070/// 12/12 Q1019
TAF EKRK 210221Z 2103/2112 VRB04KT 9999 SCT030 
     TEMPO 2103/2106 4000 RADZ BR BKN012
       
EKRN 210320Z AUTO 34001KT 9999NDV SCT006/// BKN041/// BKN078/// 11/11 Q1019
EKSB 210320Z AUTO 19004KT 9999NDV -RA BKN055/// BKN075/// 13/12 Q1018
EKSP 210320Z 19006KT 9999 FEW047 BKN062 12/11 Q1018
TAF EKSP 210220Z 2103/2124 19005KT 9999 SCT030 BKN060 
     TEMPO 2103/2108 5000 -RA BR BKN012 
     BECMG 2111/2114 13006KT
       
EKVD 210320Z AUTO 13002KT //// ///////// 12/11 Q1018
EKVG 210320Z AUTO 35001KT 9999NDV BKN160/// 07/06 Q1008
EKYT 210320Z AUTO 06002KT 6000NDV -RA FEW025/// BKN034/// BKN050/// 12/12 Q1018
TAF EKYT 210220Z 2103/2124 11005KT 9999 SCT020 BKN040 
     TEMPO 2103/2108 4000 -RA BR BKN006
       
EKRK 210320Z AUTO 27003KT 9999NDV -RA BKN070/// 12/12 Q1019
TAF EKRK 210221Z 2103/2112 VRB04KT 9999 SCT030 
     TEMPO 2103/2106 4000 RADZ BR BKN012
       
EKSP 210320Z 19006KT 9999 FEW047 BKN062 12/11 Q1018
TAF EKSP 210220Z 2103/2124 19005KT 9999 SCT030 BKN060 
     TEMPO 2103/2108 5000 -RA BR BKN012 
     BECMG 2111/2114 13006KT
       
EKSB 210320Z AUTO 19004KT 9999NDV -RA BKN055/// BKN075/// 13/12 Q1018